createdAt,value
2018-05-08T00:09:12.000Z,35.202
2018-05-08T00:19:12.000Z,35.219
2018-05-08T00:29:12.000Z,35.259
2018-05-08T00:39:12.000Z,35.245
2018-05-08T00:49:12.000Z,35.307
2018-05-08T00:59:12.000Z,35.348
2018-05-08T01:09:12.000Z,35.389
2018-05-08T01:19:12.000Z,35.474
2018-05-08T01:29:12.000Z,35.515
2018-05-08T01:39:12.000Z,35.578
2018-05-08T01:49:12.000Z,35.597
2018-05-08T01:59:12.000Z,35.637
2018-05-08T02:09:12.000Z,35.701
2018-05-08T02:19:12.000Z,35.752
2018-05-08T02:29:12.000Z,35.761
2018-05-08T02:39:12.000Z,35.791
2018-05-08T02:49:12.000Z,35.719
2018-05-08T02:59:12.000Z,35.879
2018-05-08T03:09:12.000Z,35.89
2018-05-08T03:19:12.000Z,35.995
2018-05-08T03:29:12.000Z,35.937
2018-05-08T03:39:12.000Z,36.066
2018-05-08T03:49:12.000Z,36.15
2018-05-08T03:59:12.000Z,36.16
2018-05-08T04:09:12.000Z,36.311
2018-05-08T04:19:12.000Z,36.394
2018-05-08T04:29:12.000Z,36.424
2018-05-08T04:39:12.000Z,36.316
2018-05-08T04:49:12.000Z,36.121
2018-05-08T04:59:12.000Z,36.044
2018-05-08T05:09:13.000Z,35.924
2018-05-08T05:19:13.000Z,35.881
2018-05-08T05:29:13.000Z,35.883
2018-05-08T05:39:13.000Z,35.766
2018-05-08T05:49:13.000Z,35.735
2018-05-08T05:59:13.000Z,35.463
2018-05-08T06:09:13.000Z,36.736
2018-05-08T06:19:13.000Z,36.636
2018-05-08T06:29:13.000Z,36.473
2018-05-08T06:39:13.000Z,36.376
2018-05-08T06:49:13.000Z,36.018
2018-05-08T06:59:13.000Z,35.917
2018-05-08T07:09:13.000Z,35.821
2018-05-08T07:19:13.000Z,35.752
2018-05-08T07:29:13.000Z,35.376
2018-05-08T07:39:13.000Z,35.13
2018-05-08T07:49:13.000Z,34.817
2018-05-08T07:59:13.000Z,34.324
2018-05-08T08:09:13.000Z,33.916
2018-05-08T08:19:13.000Z,34.058
2018-05-08T08:29:13.000Z,33.835
2018-05-08T08:39:13.000Z,33.767
2018-05-08T08:49:13.000Z,33.729
2018-05-08T08:59:13.000Z,33.276
2018-05-08T09:09:13.000Z,32.811
2018-05-08T09:19:13.000Z,32.003
2018-05-08T09:29:13.000Z,31.925
2018-05-08T09:39:13.000Z,31.223
2018-05-08T09:49:13.000Z,30.091
2018-05-08T09:59:13.000Z,30.285
2018-05-08T10:09:13.000Z,29.666
2018-05-08T10:19:13.000Z,29.249
2018-05-08T10:29:13.000Z,28.273
2018-05-08T10:39:13.000Z,27.397
2018-05-08T10:49:13.000Z,26.981
2018-05-08T10:59:13.000Z,26.093
2018-05-08T11:09:13.000Z,26.266
2018-05-08T11:19:13.000Z,25.674
2018-05-08T11:29:13.000Z,25.164
2018-05-08T11:39:13.000Z,24.877
2018-05-08T11:49:13.000Z,24.322
2018-05-08T11:59:13.000Z,23.587
2018-05-08T12:09:13.000Z,23.477
2018-05-08T12:19:13.000Z,23.959
2018-05-08T12:29:13.000Z,22.557
2018-05-08T12:39:13.000Z,22.825
2018-05-08T12:49:13.000Z,22.077
2018-05-08T12:59:13.000Z,22.209
2018-05-08T13:19:13.000Z,22.479
2018-05-08T13:29:14.000Z,22.075
2018-05-08T13:39:14.000Z,22.988
2018-05-08T13:49:14.000Z,23.423
2018-05-08T13:59:14.000Z,23.791
2018-05-08T14:09:14.000Z,24.235
2018-05-08T14:19:14.000Z,24.421
2018-05-08T14:29:14.000Z,24.224
2018-05-08T14:39:14.000Z,24.075
2018-05-08T14:49:14.000Z,24.532
2018-05-08T14:59:14.000Z,25.276
2018-05-08T15:09:14.000Z,24.875
2018-05-08T15:19:14.000Z,24.852
2018-05-08T15:29:14.000Z,24.695
2018-05-08T15:39:14.000Z,24.649
2018-05-08T15:49:14.000Z,24.291
2018-05-08T15:59:14.000Z,24.435
2018-05-08T16:09:14.000Z,24.131
2018-05-08T16:19:14.000Z,24.666
2018-05-08T16:29:17.000Z,24.508
2018-05-08T16:39:14.000Z,24.062
2018-05-08T16:49:14.000Z,24.083
2018-05-08T16:59:14.000Z,24.206
2018-05-08T17:19:14.000Z,24.56
2018-05-08T17:29:14.000Z,24.647
2018-05-08T17:39:14.000Z,24.947
2018-05-08T17:49:14.000Z,25.255
2018-05-08T18:09:14.000Z,25.732
2018-05-08T18:19:14.000Z,26.075
2018-05-08T18:29:14.000Z,26.329
2018-05-08T18:39:14.000Z,26.87
2018-05-08T18:49:14.000Z,27.267
2018-05-08T18:59:16.000Z,27.458
2018-05-08T19:09:14.000Z,27.932
2018-05-08T19:19:14.000Z,28.498
2018-05-08T19:29:14.000Z,28.708
2018-05-08T19:39:14.000Z,28.974
2018-05-08T19:49:14.000Z,29.228
2018-05-08T19:59:14.000Z,29.429
2018-05-08T20:09:14.000Z,29.649
2018-05-08T20:19:14.000Z,29.816
2018-05-08T20:39:14.000Z,30.353
2018-05-08T20:49:14.000Z,30.406
2018-05-08T20:59:14.000Z,30.535
2018-05-08T21:09:14.000Z,30.523
2018-05-08T21:19:15.000Z,30.607
2018-05-08T21:29:15.000Z,30.617
2018-05-08T21:39:15.000Z,30.571
2018-05-08T21:49:15.000Z,30.567
2018-05-08T21:59:15.000Z,30.708
2018-05-08T22:09:15.000Z,30.674
2018-05-08T22:19:15.000Z,30.772
2018-05-08T22:29:15.000Z,30.803
2018-05-08T22:39:15.000Z,30.712
2018-05-08T22:49:15.000Z,30.93
2018-05-08T22:59:15.000Z,31.005
2018-05-08T23:09:15.000Z,31.003
2018-05-08T23:19:15.000Z,31.111
2018-05-08T23:29:15.000Z,31.218
2018-05-08T23:39:15.000Z,31.416
2018-05-08T23:49:15.000Z,31.268
2018-05-08T23:59:15.000Z,31.464
